Time;durP1;ratioP1;P1;durP2;ratioP2;P2;SDS_P1;SDS_P2;PMS_P1;PMS_P2;Temp;Humidity;BMP_temperature;BMP_pressure;BME280_temperature;BME280_humidity;BME280_pressure;Samples;Min_cycle;Max_cycle;Signal;HPM_P1;HPM_P2
2023/12/19 00:00:46;;;;;;;10.90;7.50;;;5.80;99.90;;;;;;6251802;22;20156;-88
2023/12/19 00:03:12;;;;;;;10.63;6.90;;;5.90;99.90;;;;;;6256687;22;20210;-87
2023/12/19 00:05:40;;;;;;;9.23;6.43;;;5.80;99.90;;;;;;6282692;22;20563;-88
2023/12/19 00:08:10;;;;;;;8.87;6.73;;;5.80;99.90;;;;;;6282778;22;20167;-88
2023/12/19 00:10:37;;;;;;;8.17;6.33;;;5.80;99.90;;;;;;6283053;22;20163;-88
2023/12/19 00:13:03;;;;;;;7.33;6.07;;;5.80;99.90;;;;;;6283116;22;20460;-87
2023/12/19 00:15:29;;;;;;;9.97;6.87;;;5.90;99.90;;;;;;6282688;22;20199;-88
2023/12/19 00:17:55;;;;;;;12.17;7.10;;;5.80;99.90;;;;;;6282364;22;20521;-87
2023/12/19 00:20:20;;;;;;;9.83;6.63;;;5.90;99.90;;;;;;6283104;22;20240;-89
2023/12/19 00:22:46;;;;;;;7.80;6.63;;;5.90;99.90;;;;;;6285736;22;20188;-89
2023/12/19 00:25:12;;;;;;;7.50;6.13;;;5.90;99.90;;;;;;6286408;22;20172;-87
2023/12/19 00:27:38;;;;;;;8.50;6.67;;;5.90;99.90;;;;;;6284833;22;20160;-94
2023/12/19 00:30:04;;;;;;;9.50;6.53;;;6.00;99.90;;;;;;6286758;22;20151;-88
2023/12/19 00:32:32;;;;;;;8.77;6.67;;;6.00;99.90;;;;;;6284978;22;20156;-87
2023/12/19 00:34:58;;;;;;;9.37;6.33;;;6.00;99.90;;;;;;6285975;22;20184;-87
2023/12/19 00:38:02;;;;;;;10.23;7.03;;;6.00;99.90;;;;;;6286192;22;20155;-92
2023/12/19 00:40:28;;;;;;;8.70;6.73;;;6.00;99.90;;;;;;6285468;22;20148;-94
2023/12/19 00:42:53;;;;;;;10.60;6.77;;;6.00;99.90;;;;;;6241575;22;20211;-83
2023/12/19 00:45:19;;;;;;;8.07;6.77;;;6.10;99.90;;;;;;6312150;22;20194;-84
2023/12/19 00:47:45;;;;;;;9.27;6.83;;;6.10;99.90;;;;;;6341359;22;20177;-83
2023/12/19 00:50:15;;;;;;;9.37;7.20;;;6.10;99.90;;;;;;6341539;22;20158;-84
2023/12/19 00:52:42;;;;;;;9.40;6.67;;;6.10;99.90;;;;;;6313731;22;20151;-84
2023/12/19 00:55:08;;;;;;;11.10;7.10;;;6.00;99.90;;;;;;6313640;22;20189;-86
2023/12/19 00:57:34;;;;;;;8.40;6.53;;;6.10;99.90;;;;;;6340822;22;20140;-84
2023/12/19 01:00:00;;;;;;;9.13;7.27;;;6.10;99.90;;;;;;6313235;22;20161;-83
2023/12/19 01:02:27;;;;;;;9.80;7.13;;;6.00;99.90;;;;;;6314081;22;20151;-85
2023/12/19 01:04:56;;;;;;;9.83;7.13;;;6.00;99.90;;;;;;6314335;22;20194;-95
2023/12/19 01:07:22;;;;;;;9.60;6.67;;;6.00;99.90;;;;;;6314031;22;20160;-90
2023/12/19 01:09:48;;;;;;;10.37;7.30;;;6.00;99.90;;;;;;6341893;22;20222;-93
2023/12/19 01:12:14;;;;;;;9.63;7.13;;;6.00;99.90;;;;;;6314812;22;20513;-92
2023/12/19 01:14:41;;;;;;;11.80;7.70;;;6.00;99.90;;;;;;6313682;22;20546;-85
2023/12/19 01:17:07;;;;;;;9.90;7.87;;;6.00;99.90;;;;;;6342423;22;20140;-83
2023/12/19 01:19:33;;;;;;;11.97;7.70;;;5.90;99.90;;;;;;6342528;22;20144;-84
2023/12/19 01:21:59;;;;;;;10.13;7.43;;;5.90;99.90;;;;;;6341928;22;20455;-83
2023/12/19 01:24:28;;;;;;;9.97;7.10;;;5.90;99.90;;;;;;6314190;22;20151;-83
2023/12/19 01:26:53;;;;;;;11.70;7.67;;;5.90;99.90;;;;;;6313291;22;20144;-85
2023/12/19 01:29:20;;;;;;;11.03;7.47;;;5.90;99.90;;;;;;6314326;22;20159;-84
2023/12/19 01:31:46;;;;;;;11.20;7.63;;;5.90;99.90;;;;;;6341552;22;20148;-84
2023/12/19 01:34:12;;;;;;;9.43;7.47;;;6.00;99.90;;;;;;6313821;22;20167;-86
2023/12/19 01:36:41;;;;;;;11.70;7.93;;;5.90;99.90;;;;;;6341545;22;20209;-86
2023/12/19 01:39:10;;;;;;;16.27;8.47;;;5.90;99.90;;;;;;6342150;22;20171;-85
2023/12/19 01:41:35;;;;;;;11.03;8.30;;;5.90;99.90;;;;;;6314589;22;20181;-88
2023/12/19 01:44:01;;;;;;;12.10;8.20;;;5.90;99.90;;;;;;6294841;22;20665;-91
2023/12/19 01:46:28;;;;;;;13.43;8.60;;;5.90;99.90;;;;;;6309988;22;20432;-83
2023/12/19 01:48:57;;;;;;;15.60;8.77;;;5.90;99.90;;;;;;6282630;22;20191;-85
2023/12/19 01:51:23;;;;;;;14.13;9.23;;;5.90;99.90;;;;;;6284924;22;20156;-95
2023/12/19 01:53:49;;;;;;;16.73;9.53;;;5.80;99.90;;;;;;6310807;22;20173;-90
2023/12/19 01:56:25;;;;;;;13.23;9.37;;;5.90;99.90;;;;;;6310064;22;20179;-93
2023/12/19 01:58:51;;;;;;;13.03;9.50;;;5.90;99.90;;;;;;6283944;22;20147;-94
2023/12/19 02:01:19;;;;;;;11.50;8.83;;;5.80;99.90;;;;;;6285148;22;20179;-94
2023/12/19 02:03:46;;;;;;;14.90;9.13;;;5.90;99.90;;;;;;6311218;22;20159;-90
2023/12/19 02:06:13;;;;;;;15.13;10.03;;;5.90;99.90;;;;;;6284324;22;20626;-94
2023/12/19 02:08:39;;;;;;;13.50;9.73;;;5.90;99.90;;;;;;6310351;22;20162;-94
2023/12/19 02:11:05;;;;;;;15.37;10.30;;;5.90;99.90;;;;;;6284809;22;20160;-84
2023/12/19 02:13:31;;;;;;;16.10;9.77;;;5.80;99.90;;;;;;6283521;22;20159;-92
2023/12/19 02:15:57;;;;;;;16.13;10.67;;;5.80;99.90;;;;;;6283479;22;20187;-87
2023/12/19 02:18:23;;;;;;;14.63;10.60;;;5.80;99.90;;;;;;6283520;22;20163;-92
2023/12/19 02:20:49;;;;;;;15.47;10.37;;;5.80;99.90;;;;;;6310684;22;20152;-87
2023/12/19 02:23:15;;;;;;;13.57;10.73;;;5.80;99.90;;;;;;6311208;22;20228;-84
2023/12/19 02:25:42;;;;;;;15.67;10.87;;;5.80;99.90;;;;;;6282816;22;20242;-83
2023/12/19 02:28:08;;;;;;;15.23;11.37;;;5.90;99.90;;;;;;6282821;22;20538;-88
2023/12/19 02:30:35;;;;;;;16.80;11.40;;;5.90;99.90;;;;;;6309768;22;20454;-87
2023/12/19 02:33:01;;;;;;;15.27;11.10;;;5.90;99.90;;;;;;6281836;22;20156;-84
2023/12/19 02:35:27;;;;;;;19.53;11.07;;;5.90;99.90;;;;;;6309352;22;20691;-84
2023/12/19 02:37:53;;;;;;;17.83;11.67;;;5.90;99.90;;;;;;6282154;22;20160;-91
2023/12/19 02:40:19;;;;;;;15.47;10.90;;;5.90;99.90;;;;;;6309693;22;20430;-85
2023/12/19 02:42:45;;;;;;;16.80;11.03;;;5.90;99.90;;;;;;6284489;22;20213;-83
2023/12/19 02:45:12;;;;;;;15.20;11.27;;;5.90;99.90;;;;;;6312884;22;20464;-84
2023/12/19 02:47:38;;;;;;;15.27;11.07;;;5.90;99.90;;;;;;6313188;22;20151;-84
2023/12/19 02:50:04;;;;;;;14.77;11.00;;;5.90;99.90;;;;;;6340387;22;20140;-86
2023/12/19 02:52:30;;;;;;;16.17;11.40;;;5.80;99.90;;;;;;6340606;22;20208;-85
2023/12/19 02:54:56;;;;;;;14.13;10.67;;;5.90;99.90;;;;;;6313277;22;20210;-85
2023/12/19 02:57:22;;;;;;;17.30;11.70;;;5.80;99.90;;;;;;6340715;22;20143;-84
2023/12/19 02:59:48;;;;;;;16.13;11.27;;;5.80;99.90;;;;;;6313204;22;20151;-85
2023/12/19 03:02:13;;;;;;;18.27;11.93;;;5.80;99.90;;;;;;6313433;22;20182;-91
2023/12/19 03:04:39;;;;;;;20.43;11.00;;;5.70;99.90;;;;;;6312617;22;20581;-85
2023/12/19 03:07:06;;;;;;;15.43;11.13;;;5.70;99.90;;;;;;6313290;22;20162;-86
2023/12/19 03:09:32;;;;;;;18.37;12.63;;;5.70;99.90;;;;;;6312515;22;20230;-84
2023/12/19 03:12:07;;;;;;;16.43;11.57;;;5.60;99.90;;;;;;6313195;22;20205;-94
2023/12/19 03:14:36;;;;;;;18.00;12.00;;;5.60;99.90;;;;;;6312982;22;20143;-89
2023/12/19 03:17:04;;;;;;;17.67;11.53;;;5.60;99.90;;;;;;6312903;22;20163;-84
2023/12/19 03:19:31;;;;;;;19.83;11.87;;;5.60;99.90;;;;;;6313079;22;20155;-84
2023/12/19 03:21:57;;;;;;;16.93;10.87;;;5.60;99.90;;;;;;6340796;22;20154;-83
2023/12/19 03:24:23;;;;;;;18.33;10.93;;;5.60;99.90;;;;;;6340920;22;20147;-85
2023/12/19 03:26:49;;;;;;;14.90;10.63;;;5.70;99.90;;;;;;6312684;22;20147;-85
2023/12/19 03:29:15;;;;;;;16.90;11.30;;;5.70;99.90;;;;;;6340902;22;20150;-84
2023/12/19 03:31:42;;;;;;;14.63;10.37;;;5.70;99.90;;;;;;6312621;22;20230;-83
2023/12/19 03:34:08;;;;;;;13.53;10.37;;;5.70;99.90;;;;;;6312485;22;20463;-83
2023/12/19 03:36:34;;;;;;;16.30;10.67;;;5.70;99.90;;;;;;6340301;22;20183;-85
2023/12/19 03:39:00;;;;;;;14.40;11.03;;;5.70;99.90;;;;;;6340699;22;20163;-86
2023/12/19 03:41:26;;;;;;;17.50;11.03;;;5.70;99.90;;;;;;6340554;22;20450;-84
2023/12/19 03:43:52;;;;;;;17.77;10.63;;;5.70;99.90;;;;;;6312566;22;20224;-84
2023/12/19 03:46:17;;;;;;;16.47;10.47;;;5.70;99.90;;;;;;6340168;22;20205;-83
2023/12/19 03:48:46;;;;;;;17.17;11.03;;;5.60;99.90;;;;;;6340217;22;20176;-93
2023/12/19 03:51:13;;;;;;;16.70;11.27;;;5.60;99.90;;;;;;6312382;22;20155;-84
2023/12/19 03:53:38;;;;;;;17.00;11.23;;;5.60;99.90;;;;;;6312556;22;20163;-91
2023/12/19 03:56:05;;;;;;;16.53;11.03;;;5.60;99.90;;;;;;6313451;22;20182;-87
2023/12/19 03:58:31;;;;;;;16.70;12.17;;;5.60;99.90;;;;;;6314743;22;20242;-85
2023/12/19 04:00:59;;;;;;;17.80;11.57;;;5.50;99.90;;;;;;6342186;22;20154;-83
2023/12/19 04:03:24;;;;;;;18.30;11.80;;;5.60;99.90;;;;;;6342362;22;20163;-84
2023/12/19 04:05:50;;;;;;;18.20;12.07;;;5.60;99.90;;;;;;6340819;22;20150;-83
2023/12/19 04:08:16;;;;;;;18.50;11.97;;;5.60;99.90;;;;;;6314964;22;20158;-84
2023/12/19 04:10:42;;;;;;;19.23;12.53;;;5.60;99.90;;;;;;6314701;22;20472;-84
2023/12/19 04:13:07;;;;;;;18.03;12.33;;;5.60;99.90;;;;;;6314855;22;20160;-84
2023/12/19 04:15:33;;;;;;;21.97;13.60;;;5.50;99.90;;;;;;6314020;22;20700;-88
2023/12/19 04:18:00;;;;;;;20.07;12.87;;;5.50;99.90;;;;;;6314600;22;20183;-84
2023/12/19 04:20:25;;;;;;;16.70;12.10;;;5.50;99.90;;;;;;6341959;22;20177;-84
2023/12/19 04:22:51;;;;;;;20.47;13.23;;;5.50;99.90;;;;;;6314830;22;20159;-85
2023/12/19 04:25:17;;;;;;;20.43;13.27;;;5.50;99.90;;;;;;6341160;22;20144;-86
2023/12/19 04:27:44;;;;;;;20.10;12.63;;;5.50;99.90;;;;;;6342201;22;20174;-84
2023/12/19 04:30:10;;;;;;;18.93;13.30;;;5.50;99.90;;;;;;6314253;22;20151;-84
2023/12/19 04:32:36;;;;;;;17.50;12.83;;;5.40;99.90;;;;;;6314650;22;20241;-83
2023/12/19 04:35:03;;;;;;;17.40;11.83;;;5.40;99.90;;;;;;6341636;22;20175;-85
2023/12/19 04:37:29;;;;;;;20.87;13.87;;;5.50;99.90;;;;;;6341642;22;20147;-93
2023/12/19 04:39:54;;;;;;;18.63;12.83;;;5.40;99.90;;;;;;6314673;22;20148;-85
2023/12/19 04:42:20;;;;;;;19.70;12.83;;;5.40;99.90;;;;;;6314362;22;20498;-84
2023/12/19 04:44:47;;;;;;;18.27;12.33;;;5.40;99.90;;;;;;6314007;22;20380;-84
2023/12/19 04:47:13;;;;;;;17.43;12.23;;;5.40;99.90;;;;;;6314073;22;20500;-84
2023/12/19 04:49:40;;;;;;;16.43;11.67;;;5.40;99.90;;;;;;6313917;22;20442;-87
2023/12/19 04:52:06;;;;;;;14.80;10.70;;;5.40;99.90;;;;;;6314167;22;20166;-83
2023/12/19 04:54:32;;;;;;;18.33;12.20;;;5.40;99.90;;;;;;6341881;22;20151;-84
2023/12/19 04:56:58;;;;;;;15.90;11.00;;;5.40;99.90;;;;;;6341442;22;20186;-84
2023/12/19 04:59:24;;;;;;;18.07;10.90;;;5.40;99.90;;;;;;6314190;22;20155;-87
2023/12/19 05:01:50;;;;;;;18.30;10.77;;;5.40;99.90;;;;;;6313239;22;20159;-85
2023/12/19 05:04:16;;;;;;;15.43;11.00;;;5.50;99.90;;;;;;6314056;22;20159;-85
2023/12/19 05:06:42;;;;;;;15.77;11.07;;;5.40;99.90;;;;;;6341092;22;20175;-85
2023/12/19 05:09:08;;;;;;;17.83;11.63;;;5.40;99.90;;;;;;6314195;22;20158;-84
2023/12/19 05:11:35;;;;;;;16.40;10.47;;;5.40;99.90;;;;;;6313980;22;20152;-86
2023/12/19 05:14:01;;;;;;;14.93;10.50;;;5.40;99.90;;;;;;6313816;22;20155;-84
2023/12/19 05:16:27;;;;;;;14.47;10.00;;;5.40;99.90;;;;;;6341026;22;20230;-83
2023/12/19 05:18:53;;;;;;;17.00;10.57;;;5.40;99.90;;;;;;6313909;22;20177;-83
2023/12/19 05:21:21;;;;;;;13.87;10.53;;;5.40;99.90;;;;;;6313661;22;20155;-85
2023/12/19 05:23:47;;;;;;;15.47;10.73;;;5.40;99.90;;;;;;6341416;22;20157;-83
2023/12/19 05:26:13;;;;;;;15.23;10.80;;;5.40;99.90;;;;;;6340883;22;20155;-84
2023/12/19 05:28:40;;;;;;;14.37;10.67;;;5.40;99.90;;;;;;6313410;22;20151;-84
2023/12/19 05:31:07;;;;;;;14.30;10.57;;;5.50;99.90;;;;;;6313743;22;20159;-83
2023/12/19 05:33:34;;;;;;;16.27;11.03;;;5.40;99.90;;;;;;6314403;22;20159;-85
2023/12/19 05:36:01;;;;;;;13.70;9.90;;;5.50;99.90;;;;;;6313463;22;20236;-84
2023/12/19 05:38:27;;;;;;;14.83;10.27;;;5.50;99.90;;;;;;6314329;22;20155;-83
2023/12/19 05:40:57;;;;;;;16.67;11.07;;;5.50;99.90;;;;;;6312627;22;20155;-88
2023/12/19 05:43:23;;;;;;;14.97;10.47;;;5.50;99.90;;;;;;6341313;22;20664;-86
2023/12/19 05:45:49;;;;;;;14.93;10.70;;;5.50;99.90;;;;;;6314907;22;20559;-90
2023/12/19 05:48:15;;;;;;;16.80;10.70;;;5.50;99.90;;;;;;6343561;22;20226;-92
2023/12/19 05:50:41;;;;;;;14.37;11.10;;;5.50;99.90;;;;;;6314116;22;20155;-88
2023/12/19 05:53:06;;;;;;;12.97;9.73;;;5.50;99.90;;;;;;6342981;22;20569;-88
2023/12/19 05:55:32;;;;;;;15.60;10.70;;;5.50;99.90;;;;;;6314083;22;20208;-88
2023/12/19 05:57:59;;;;;;;17.27;10.60;;;5.50;99.90;;;;;;6314024;22;20162;-87
2023/12/19 06:00:25;;;;;;;13.83;10.17;;;5.50;99.90;;;;;;6314251;22;20233;-87
2023/12/19 06:02:51;;;;;;;14.47;10.37;;;5.50;99.90;;;;;;6342622;22;20148;-86
2023/12/19 06:05:18;;;;;;;14.47;10.43;;;5.40;99.90;;;;;;6314651;22;20205;-87
2023/12/19 06:07:43;;;;;;;16.27;11.63;;;5.50;99.90;;;;;;6314564;22;20159;-90
2023/12/19 06:10:13;;;;;;;16.80;10.83;;;5.50;99.90;;;;;;6313857;22;20465;-87
2023/12/19 06:12:40;;;;;;;16.63;10.67;;;5.50;99.90;;;;;;6313988;22;20155;-86
2023/12/19 06:15:12;;;;;;;16.57;11.20;;;5.50;99.90;;;;;;6313910;22;20758;-84
2023/12/19 06:17:50;;;;;;;17.00;10.80;;;5.50;99.90;;;;;;6314140;22;20437;-91
2023/12/19 06:20:16;;;;;;;17.53;10.97;;;5.50;99.90;;;;;;6316151;22;20158;-93
2023/12/19 06:22:42;;;;;;;15.83;10.23;;;5.50;99.90;;;;;;6315327;22;20163;-95
2023/12/19 06:25:08;;;;;;;15.23;9.80;;;5.50;99.90;;;;;;6315750;22;20221;-89
2023/12/19 06:27:35;;;;;;;13.80;9.57;;;5.60;99.90;;;;;;6315737;22;20159;-91
2023/12/19 06:30:05;;;;;;;13.53;9.67;;;5.60;99.90;;;;;;6343353;22;20596;-95
2023/12/19 06:32:31;;;;;;;15.50;9.37;;;5.60;99.90;;;;;;6315251;22;20152;-92
2023/12/19 06:34:57;;;;;;;13.77;9.70;;;5.70;99.90;;;;;;6314367;22;20162;-93
2023/12/19 06:37:23;;;;;;;14.73;9.77;;;5.70;99.90;;;;;;6314839;22;20294;-85
2023/12/19 06:39:49;;;;;;;12.33;8.80;;;5.70;99.90;;;;;;6341399;22;20140;-90
2023/12/19 06:42:15;;;;;;;15.00;9.83;;;5.70;99.90;;;;;;6313874;22;20155;-85
2023/12/19 06:44:40;;;;;;;13.70;9.70;;;5.70;99.90;;;;;;6341133;22;20632;-85
2023/12/19 06:47:06;;;;;;;14.17;9.70;;;5.70;99.90;;;;;;6341130;22;20140;-84
2023/12/19 06:49:32;;;;;;;13.00;9.23;;;5.70;99.90;;;;;;6313205;22;20163;-86
2023/12/19 06:51:58;;;;;;;13.53;9.70;;;5.70;99.90;;;;;;6341551;22;20220;-90
2023/12/19 06:54:24;;;;;;;13.13;9.40;;;5.70;99.90;;;;;;6314155;22;20169;-93
2023/12/19 06:56:51;;;;;;;14.40;10.17;;;5.70;99.90;;;;;;6313954;22;20198;-86
2023/12/19 06:59:17;;;;;;;13.50;9.50;;;5.70;99.90;;;;;;6313581;22;20212;-84
2023/12/19 07:01:44;;;;;;;12.43;9.90;;;5.70;99.90;;;;;;6340848;22;20490;-85
2023/12/19 07:04:10;;;;;;;15.27;10.07;;;5.70;99.90;;;;;;6313425;22;20152;-84
2023/12/19 07:06:35;;;;;;;14.40;9.50;;;5.60;99.90;;;;;;6340560;22;20150;-84
2023/12/19 07:09:01;;;;;;;13.30;9.30;;;5.70;99.90;;;;;;6341589;22;20243;-89
2023/12/19 07:11:27;;;;;;;13.30;9.70;;;5.70;99.90;;;;;;6313755;22;20437;-89
2023/12/19 07:13:53;;;;;;;14.07;9.77;;;5.70;99.90;;;;;;6313750;22;20155;-87
2023/12/19 07:16:19;;;;;;;12.77;10.10;;;5.70;99.90;;;;;;6341079;22;20183;-93
2023/12/19 07:18:46;;;;;;;13.13;9.53;;;5.70;99.90;;;;;;6312696;22;20288;-84
2023/12/19 07:21:24;;;;;;;14.33;10.40;;;5.70;99.90;;;;;;6313789;22;20160;-90
2023/12/19 07:23:52;;;;;;;13.67;9.87;;;5.70;99.90;;;;;;6312873;22;20187;-92
2023/12/19 07:26:27;;;;;;;16.47;9.50;;;5.70;99.90;;;;;;6313351;22;20163;-91
2023/12/19 07:28:54;;;;;;;15.97;9.33;;;5.70;99.90;;;;;;6340951;22;20169;-91
2023/12/19 07:31:24;;;;;;;15.23;9.70;;;5.70;99.90;;;;;;6312582;22;20179;-88
2023/12/19 07:33:54;;;;;;;14.07;10.67;;;5.70;99.90;;;;;;6313788;22;20247;-85
2023/12/19 07:36:20;;;;;;;14.83;10.60;;;5.70;99.90;;;;;;6312913;22;20606;-88
2023/12/19 07:38:45;;;;;;;18.30;12.10;;;5.70;99.90;;;;;;6313687;22;20158;-94
2023/12/19 07:41:11;;;;;;;16.30;11.07;;;5.70;99.90;;;;;;6313462;22;20197;-87
2023/12/19 07:43:37;;;;;;;18.67;12.17;;;5.60;99.90;;;;;;6340810;22;20183;-86
2023/12/19 07:46:06;;;;;;;20.03;12.00;;;5.60;99.90;;;;;;6313103;22;20208;-90
2023/12/19 07:48:32;;;;;;;20.63;13.13;;;5.60;99.90;;;;;;6341146;22;20148;-85
2023/12/19 07:50:58;;;;;;;20.63;13.30;;;5.60;99.90;;;;;;6313559;22;20179;-84
2023/12/19 07:53:27;;;;;;;18.67;12.93;;;5.50;99.90;;;;;;6313880;22;20151;-86
2023/12/19 07:55:53;;;;;;;19.00;12.83;;;5.50;99.90;;;;;;6340243;22;20609;-83
2023/12/19 07:58:20;;;;;;;19.97;13.43;;;5.40;99.90;;;;;;6313618;22;20181;-87
2023/12/19 08:00:48;;;;;;;18.87;13.30;;;5.40;99.90;;;;;;6339894;22;20147;-87
2023/12/19 08:03:15;;;;;;;20.00;13.97;;;5.40;99.90;;;;;;6313392;22;20234;-85
2023/12/19 08:05:52;;;;;;;19.10;13.07;;;5.40;99.90;;;;;;6312110;22;20151;-83
2023/12/19 08:08:17;;;;;;;20.47;14.33;;;5.40;99.90;;;;;;6313453;22;20158;-87
2023/12/19 08:10:45;;;;;;;20.87;14.43;;;5.40;99.90;;;;;;6312327;22;20159;-93
2023/12/19 08:13:12;;;;;;;21.20;14.30;;;5.40;99.90;;;;;;6313163;22;20175;-93
2023/12/19 08:15:40;;;;;;;20.37;14.20;;;5.40;99.90;;;;;;6311990;22;20218;-84
2023/12/19 08:18:07;;;;;;;22.27;14.90;;;5.40;99.90;;;;;;6312883;22;20240;-85
2023/12/19 08:20:33;;;;;;;26.30;14.77;;;5.40;99.90;;;;;;6312127;22;20186;-88
2023/12/19 08:23:00;;;;;;;23.40;14.97;;;5.40;99.90;;;;;;6340796;22;20140;-85
2023/12/19 08:25:26;;;;;;;20.10;14.50;;;5.40;99.90;;;;;;6312004;22;20163;-92
2023/12/19 08:27:52;;;;;;;24.57;15.50;;;5.40;99.90;;;;;;6312748;22;20178;-88
2023/12/19 08:30:18;;;;;;;23.20;15.50;;;5.40;99.90;;;;;;6312646;22;20182;-87
2023/12/19 08:32:44;;;;;;;21.97;14.30;;;5.40;99.90;;;;;;6312711;22;20226;-84
2023/12/19 08:35:09;;;;;;;21.70;14.57;;;5.40;99.90;;;;;;6340169;22;20606;-84
2023/12/19 08:37:36;;;;;;;23.53;15.73;;;5.50;99.90;;;;;;6312507;22;20155;-89
2023/12/19 08:40:03;;;;;;;25.50;15.20;;;5.40;99.90;;;;;;6340781;22;20147;-83
2023/12/19 08:42:30;;;;;;;23.00;15.20;;;5.50;99.90;;;;;;6341422;22;20165;-85
2023/12/19 08:44:56;;;;;;;25.30;16.23;;;5.50;99.90;;;;;;6315164;22;20252;-91
2023/12/19 08:47:22;;;;;;;26.67;15.53;;;5.50;99.90;;;;;;6314624;22;20163;-94
2023/12/19 08:49:52;;;;;;;22.77;15.67;;;5.40;99.90;;;;;;6315452;22;20155;-94
2023/12/19 08:52:22;;;;;;;22.80;15.13;;;5.50;99.90;;;;;;6314227;22;20155;-86
2023/12/19 08:54:48;;;;;;;27.37;15.83;;;5.50;99.90;;;;;;6314745;22;20151;-92
2023/12/19 08:57:14;;;;;;;23.60;15.53;;;5.50;99.90;;;;;;6314544;22;20155;-94
2023/12/19 08:59:41;;;;;;;22.27;15.40;;;5.50;99.90;;;;;;6341488;22;20155;-83
2023/12/19 09:02:07;;;;;;;22.43;15.47;;;5.50;99.90;;;;;;6314885;22;20155;-92
2023/12/19 09:04:33;;;;;;;23.77;15.50;;;5.60;99.90;;;;;;6342016;22;20143;-94
2023/12/19 09:06:59;;;;;;;22.63;15.23;;;5.60;99.90;;;;;;6315369;22;20569;-86
2023/12/19 09:09:27;;;;;;;18.83;13.60;;;5.60;99.90;;;;;;6341673;22;20151;-85
2023/12/19 09:11:53;;;;;;;21.77;14.40;;;5.60;99.90;;;;;;6315168;22;20155;-96
2023/12/19 09:14:20;;;;;;;22.80;14.40;;;5.60;99.90;;;;;;6314760;22;20162;-94
2023/12/19 09:16:46;;;;;;;21.83;14.30;;;5.70;99.90;;;;;;6342386;22;20179;-86
2023/12/19 09:19:16;;;;;;;18.97;14.00;;;5.70;99.90;;;;;;6314975;22;20167;-96
2023/12/19 09:21:48;;;;;;;21.20;14.20;;;5.70;99.90;;;;;;6315007;22;20159;-95
2023/12/19 09:24:14;;;;;;;21.77;14.17;;;5.70;99.90;;;;;;6342307;22;20140;-94
2023/12/19 09:26:40;;;;;;;21.67;14.27;;;5.80;99.90;;;;;;6343140;22;20169;-89
2023/12/19 09:29:06;;;;;;;18.40;13.10;;;5.80;99.90;;;;;;6343318;22;20148;-86
2023/12/19 09:31:37;;;;;;;17.43;13.00;;;5.80;99.90;;;;;;6343185;22;20155;-93
2023/12/19 09:34:03;;;;;;;18.10;12.50;;;5.80;99.90;;;;;;6315101;22;20155;-87
2023/12/19 09:36:29;;;;;;;18.30;12.40;;;5.80;99.90;;;;;;6342118;22;20179;-93
2023/12/19 09:38:54;;;;;;;18.03;12.63;;;5.80;99.90;;;;;;6341853;22;20151;-96
2023/12/19 09:41:21;;;;;;;17.73;11.77;;;5.80;99.90;;;;;;6315240;22;20163;-92
2023/12/19 09:43:47;;;;;;;14.97;10.90;;;5.80;99.90;;;;;;6342266;22;20691;-85
2023/12/19 09:46:13;;;;;;;17.63;12.03;;;5.80;99.90;;;;;;6341561;22;20150;-84
2023/12/19 09:48:42;;;;;;;15.17;11.97;;;5.80;99.90;;;;;;6313981;22;20159;-84
2023/12/19 09:51:21;;;;;;;18.63;12.03;;;5.80;99.90;;;;;;6313931;22;20184;-87
2023/12/19 09:53:49;;;;;;;15.87;12.20;;;5.80;99.90;;;;;;6313554;22;20147;-84
2023/12/19 09:56:16;;;;;;;16.07;11.20;;;5.80;99.90;;;;;;6313605;22;20190;-83
2023/12/19 09:58:44;;;;;;;18.50;12.07;;;5.90;99.90;;;;;;6313746;22;20637;-84
2023/12/19 10:01:11;;;;;;;15.67;11.73;;;5.90;99.90;;;;;;6314032;22;20597;-84
2023/12/19 10:03:38;;;;;;;16.23;11.47;;;5.90;99.90;;;;;;6313739;22;20221;-84
2023/12/19 10:06:06;;;;;;;16.33;11.63;;;5.90;99.90;;;;;;6313790;22;20212;-83
2023/12/19 10:08:33;;;;;;;16.40;12.17;;;5.90;99.90;;;;;;6341138;22;20147;-85
2023/12/19 10:10:58;;;;;;;16.57;11.60;;;5.90;99.90;;;;;;6341712;22;20277;-85
2023/12/19 10:13:30;;;;;;;16.13;11.77;;;5.90;99.90;;;;;;6341577;22;20139;-84
2023/12/19 10:16:17;;;;;;;14.57;9.93;;;6.00;99.90;;;;;;6341098;22;20179;-88
2023/12/19 10:18:44;;;;;;;16.60;11.53;;;6.00;99.90;;;;;;6341495;22;20181;-83
2023/12/19 10:21:14;;;;;;;17.87;11.70;;;6.00;99.90;;;;;;6341521;22;20151;-84
2023/12/19 10:23:43;;;;;;;15.27;10.80;;;5.90;99.90;;;;;;6313368;22;20153;-84
2023/12/19 10:26:10;;;;;;;17.23;11.40;;;6.00;99.90;;;;;;6313040;22;20231;-84
2023/12/19 10:28:37;;;;;;;14.87;10.33;;;6.00;99.90;;;;;;6313459;22;20582;-91
2023/12/19 10:31:11;;;;;;;15.67;10.97;;;6.00;99.90;;;;;;6313620;22;20498;-85
2023/12/19 10:33:44;;;;;;;16.63;11.33;;;6.00;99.90;;;;;;6313640;22;20148;-87
2023/12/19 10:36:24;;;;;;;16.73;10.57;;;6.00;99.90;;;;;;6313255;22;20190;-89
2023/12/19 10:38:51;;;;;;;16.53;11.10;;;5.90;99.90;;;;;;6313357;22;20225;-85
2023/12/19 10:41:19;;;;;;;18.37;11.27;;;6.00;99.90;;;;;;6313193;22;20166;-86
2023/12/19 10:43:49;;;;;;;19.40;11.40;;;6.00;99.90;;;;;;6313249;22;20199;-85
2023/12/19 10:46:24;;;;;;;19.37;11.47;;;6.00;99.90;;;;;;6341153;22;20573;-88
2023/12/19 10:49:01;;;;;;;15.03;10.63;;;5.90;99.90;;;;;;6314029;22;20452;-85
2023/12/19 10:51:37;;;;;;;15.50;11.53;;;5.90;99.90;;;;;;6313557;22;20466;-85
2023/12/19 10:54:14;;;;;;;16.53;11.40;;;5.90;99.90;;;;;;6341056;22;20140;-84
2023/12/19 10:56:55;;;;;;;16.50;10.80;;;5.90;99.90;;;;;;6340876;22;20218;-86
2023/12/19 10:59:30;;;;;;;16.27;10.40;;;5.90;99.90;;;;;;6341005;22;20135;-88
2023/12/19 11:02:03;;;;;;;15.93;10.77;;;6.00;99.90;;;;;;6313322;22;20171;-85
2023/12/19 11:04:37;;;;;;;17.70;10.90;;;6.00;99.90;;;;;;6312787;22;20175;-85
2023/12/19 11:07:08;;;;;;;16.03;10.00;;;6.00;99.90;;;;;;6313083;22;20446;-84
2023/12/19 11:09:36;;;;;;;16.83;10.43;;;6.00;99.90;;;;;;6340686;22;20146;-86
2023/12/19 11:12:04;;;;;;;14.00;9.80;;;6.00;99.90;;;;;;6340864;22;20182;-88
2023/12/19 11:14:30;;;;;;;12.60;9.23;;;6.00;99.90;;;;;;6313226;22;20148;-84
2023/12/19 11:17:14;;;;;;;14.00;9.23;;;6.00;99.90;;;;;;6312767;22;20195;-84
2023/12/19 11:20:00;;;;;;;13.93;9.90;;;6.00;99.90;;;;;;6313373;22;20313;-86
2023/12/19 11:22:38;;;;;;;12.73;8.83;;;6.10;99.90;;;;;;6313124;22;20155;-85
2023/12/19 11:25:20;;;;;;;12.00;8.27;;;6.10;99.90;;;;;;6312731;22;20147;-89
2023/12/19 11:27:54;;;;;;;12.53;8.30;;;6.10;99.90;;;;;;6313211;22;20238;-85
2023/12/19 11:30:37;;;;;;;11.77;8.10;;;6.10;99.90;;;;;;6313268;22;20200;-86
2023/12/19 11:33:04;;;;;;;12.37;8.30;;;6.10;99.90;;;;;;6313042;22;20163;-91
2023/12/19 11:35:31;;;;;;;10.10;7.40;;;6.10;99.90;;;;;;6312969;22;20183;-85
2023/12/19 11:38:17;;;;;;;9.87;7.23;;;6.10;99.90;;;;;;6313035;22;20207;-87
2023/12/19 11:40:50;;;;;;;13.17;7.67;;;6.10;99.90;;;;;;6313161;22;20159;-85
2023/12/19 11:43:28;;;;;;;13.70;6.97;;;6.10;99.90;;;;;;6340686;22;20206;-87
2023/12/19 11:46:15;;;;;;;10.73;7.50;;;6.10;99.90;;;;;;6340244;22;20570;-89
2023/12/19 11:48:44;;;;;;;10.80;7.67;;;6.10;99.90;;;;;;6340675;22;20155;-86
2023/12/19 11:51:11;;;;;;;10.57;6.97;;;6.10;99.90;;;;;;6340935;22;20151;-85
2023/12/19 11:53:41;;;;;;;10.40;6.83;;;6.10;99.90;;;;;;6313180;22;20144;-87
2023/12/19 11:56:09;;;;;;;8.83;5.97;;;6.10;99.90;;;;;;6313024;22;20190;-85
2023/12/19 11:58:37;;;;;;;9.40;6.63;;;6.10;99.90;;;;;;6312850;22;20159;-84
2023/12/19 12:01:08;;;;;;;8.17;6.00;;;6.10;99.90;;;;;;6340873;22;20494;-91
2023/12/19 12:03:34;;;;;;;9.27;5.80;;;6.10;99.90;;;;;;6340690;22;20135;-84
2023/12/19 12:06:00;;;;;;;10.57;6.53;;;6.10;99.90;;;;;;6312896;22;20232;-90
2023/12/19 12:08:26;;;;;;;8.87;6.43;;;6.10;99.90;;;;;;6312706;22;20165;-86
2023/12/19 12:11:02;;;;;;;8.90;5.37;;;6.10;99.90;;;;;;6340576;22;20174;-88
2023/12/19 12:13:30;;;;;;;7.77;5.47;;;6.00;99.90;;;;;;6313089;22;20162;-93
2023/12/19 12:15:57;;;;;;;7.90;5.47;;;6.10;99.90;;;;;;6340782;22;20182;-86
2023/12/19 12:18:24;;;;;;;7.73;5.80;;;6.10;99.90;;;;;;6342473;22;20171;-91
2023/12/19 12:20:50;;;;;;;8.37;6.47;;;6.10;99.90;;;;;;6315042;22;20163;-88
2023/12/19 12:23:20;;;;;;;8.67;5.10;;;6.10;99.90;;;;;;6314874;22;20238;-89
2023/12/19 12:25:56;;;;;;;6.73;5.00;;;6.10;99.90;;;;;;6315129;22;20242;-88
2023/12/19 12:28:26;;;;;;;7.60;5.33;;;6.20;99.90;;;;;;6315065;22;20159;-89
2023/12/19 12:30:59;;;;;;;7.23;5.30;;;6.10;99.90;;;;;;6314847;22;20617;-92
2023/12/19 12:33:31;;;;;;;7.07;5.30;;;6.20;99.90;;;;;;6314914;22;20235;-94
2023/12/19 12:35:57;;;;;;;6.37;5.10;;;6.20;99.90;;;;;;6314765;22;20267;-89
2023/12/19 12:38:25;;;;;;;8.63;5.47;;;6.20;99.90;;;;;;6342523;22;20144;-92
2023/12/19 12:40:56;;;;;;;8.80;5.50;;;6.10;99.90;;;;;;6315191;22;20162;-92
2023/12/19 12:43:55;;;;;;;6.67;5.37;;;6.10;99.90;;;;;;6342411;22;20202;-92
2023/12/19 12:46:24;;;;;;;8.50;5.47;;;6.10;99.90;;;;;;6315115;22;20461;-89